Cathlamet — WYR7641 — position and weather

sailwx.info

Track history (hours):
 
Tides and Currents Weather Stations Pressure Air Temp Water Temp Dewpoint Dewpoint Depression Visibility Wind Speed Wind Dir Waves Ship Positions

Cathlamet

Owner: WASHINGTON, STATE OF; Dept. of Transportation, OLYMPIA, WA. More information available from US FCC via Universal Licensing System and Coast Guard Vessel Documentation Center.

Last reported at 2017-Sep-22 02:00 UTC. Time now 2017-Sep-23 18:34 UTC.
Position N 47°31' W 122°28'.

Length 100 m; draft 4.7 m.

Type: Passenger vessel. MMSI: 366773070.

Date/timePositionNaut miles runAvg speedWind from/ knotsBaromVisibWave heightAir tempDewpointWater temp
2017-Sep-22 02:00N 47°31' W 122°28'3 5.6
2017-Sep-22 01:30N 47°31' W 122°24'4 8.2
2017-Sep-22 01:01N 47°31' W 122°30'1 2.7
2017-Sep-22 00:31N 47°31' W 122°28'3 5.4
2017-Sep-22 00:01N 47°31' W 122°24'3 5.5
2017-Sep-21 23:30N 47°31' W 122°28'3 5.6
2017-Sep-21 23:01N 47°31' W 122°24'2 4.4
2017-Sep-21 22:30N 47°31' W 122°27'1 1.0
2017-Sep-21 22:01N 47°31' W 122°26'1 1.4
2017-Sep-21 21:31N 47°31' W 122°25'2 3.4
2017-Sep-21 21:00N 47°31' W 122°28'0 0.0
2017-Sep-21 20:30N 47°31' W 122°28'2 3.5
2017-Sep-21 20:01N 47°31' W 122°25'1 2.0
2017-Sep-21 19:30N 47°31' W 122°27'2 4.0
2017-Sep-21 19:00N 47°31' W 122°24'3 5.5
2017-Sep-21 18:30N 47°31' W 122°28'1 2.7
2017-Sep-21 18:00N 47°31' W 122°30'2 3.4
2017-Sep-21 17:30N 47°31' W 122°27'2 4.7
2017-Sep-21 17:00N 47°31' W 122°24'3 5.8
2017-Sep-21 16:30N 47°31' W 122°28'0 0.6
2017-Sep-21 16:01N 47°31' W 122°28'3 5.7
2017-Sep-21 15:30N 47°31' W 122°24'4 7.5
2017-Sep-21 15:01N 47°31' W 122°30'1 2.5
2017-Sep-21 14:30N 47°31' W 122°28'3 5.6
2017-Sep-21 14:00N 47°31' W 122°24'3 5.6
2017-Sep-21 13:31N 47°31' W 122°28'3 5.5
2017-Sep-21 13:01N 47°31' W 122°24'3 5.5
2017-Sep-21 12:31N 47°31' W 122°28'0 0.0
2017-Sep-21 12:01N 47°31' W 122°28'0 0.0
2017-Sep-21 11:31N 47°31' W 122°28'0 0.0
2017-Sep-21 11:01N 47°31' W 122°28'0 0.0
2017-Sep-21 10:31N 47°31' W 122°28'0 0.0
2017-Sep-21 10:01N 47°31' W 122°28'0 0.0
2017-Sep-21 09:31N 47°31' W 122°28'0 0.0
2017-Sep-21 09:01N 47°31' W 122°28'0 0.0
2017-Sep-21 08:31N 47°31' W 122°28'0 0.0
2017-Sep-21 08:00N 47°31' W 122°28'0 0.0
2017-Sep-21 07:31N 47°31' W 122°28'0 0.0
2017-Sep-21 07:00N 47°31' W 122°28'0 0.0
2017-Sep-21 06:31N 47°31' W 122°28'0 0.0
2017-Sep-21 06:01N 47°31' W 122°28'0 0.0
2017-Sep-21 05:30N 47°31' W 122°28'0 0.0
2017-Sep-21 05:01N 47°31' W 122°28'1 2.5
2017-Sep-21 04:30N 47°31' W 122°30'3 6.7
2017-Sep-21 04:01N 47°31' W 122°25'2 4.3
2017-Sep-21 03:31N 47°31' W 122°28'3 5.5
2017-Sep-21 03:00N 47°31' W 122°24'3 5.6
2017-Sep-21 02:31N 47°31' W 122°28'0 0.3
2017-Sep-21 02:01N 47°31' W 122°28'3 5.6
2017-Sep-21 01:30N 47°31' W 122°24'4 8.0
2017-Sep-21 01:00N 47°31' W 122°30'1 2.5
2017-Sep-21 00:30N 47°31' W 122°28'3 5.6
2017-Sep-21 00:00N 47°31' W 122°24'3 5.6
2017-Sep-20 23:30N 47°31' W 122°28'3 5.5
2017-Sep-20 23:00N 47°31' W 122°24'2 4.1
2017-Sep-20 22:30N 47°31' W 122°27'1 1.1
2017-Sep-20 22:00N 47°31' W 122°28'2 4.0
2017-Sep-20 21:30N 47°31' W 122°25'2 4.3
2017-Sep-20 21:00N 47°31' W 122°28'0 0.0
2017-Sep-20 20:30N 47°31' W 122°28'2 3.6
2017-Sep-20 20:00N 47°31' W 122°25'1 1.5
2017-Sep-20 19:30N 47°31' W 122°26'1 2.4
2017-Sep-20 19:00N 47°31' W 122°25'2 4.5
2017-Sep-20 18:30N 47°31' W 122°28'1 2.7
2017-Sep-20 18:01N 47°31' W 122°30'2 3.4
2017-Sep-20 17:30N 47°31' W 122°27'2 4.7
2017-Sep-20 17:00N 47°31' W 122°24'3 5.6
2017-Sep-20 16:31N 47°31' W 122°28'0 0.6
2017-Sep-20 16:00N 47°31' W 122°28'3 5.3
2017-Sep-20 15:31N 47°31' W 122°24'4 7.1
2017-Sep-20 15:01N 47°31' W 122°29'4 3.5
2017-Sep-20 14:00N 47°31' W 122°24'3 5.5
2017-Sep-20 13:30N 47°31' W 122°28'3 5.6
2017-Sep-20 13:00N 47°31' W 122°24'3 5.6
2017-Sep-20 12:31N 47°31' W 122°28'0 0.0
2017-Sep-20 12:01N 47°31' W 122°28'0 0.0
2017-Sep-20 11:31N 47°31' W 122°28'0 0.0
2017-Sep-20 11:01N 47°31' W 122°28'0 0.0
2017-Sep-20 10:31N 47°31' W 122°28'0 0.0
2017-Sep-20 10:01N 47°31' W 122°28'0 0.0
2017-Sep-20 09:30N 47°31' W 122°28'0 0.0
2017-Sep-20 09:01N 47°31' W 122°28'0 0.0
2017-Sep-20 08:31N 47°31' W 122°28'0 0.0
2017-Sep-20 08:01N 47°31' W 122°28'0 0.0
2017-Sep-20 07:31N 47°31' W 122°28'0 0.0
2017-Sep-20 07:01N 47°31' W 122°28'0 0.0
2017-Sep-20 06:31N 47°31' W 122°28'0 0.0
2017-Sep-20 06:00N 47°31' W 122°28'0 0.0
2017-Sep-20 05:31N 47°31' W 122°28'0 0.0
2017-Sep-20 05:01N 47°31' W 122°28'1 2.3
2017-Sep-20 04:31N 47°31' W 122°29'4 7.6
2017-Sep-20 04:00N 47°31' W 122°24'3 5.6
2017-Sep-20 03:30N 47°31' W 122°28'3 5.5
2017-Sep-20 03:00N 47°31' W 122°24'3 5.7
2017-Sep-20 02:31N 47°31' W 122°28'0 0.7
2017-Sep-20 02:01N 47°31' W 122°28'3 5.6
2017-Sep-20 01:30N 47°31' W 122°24'4 8.2
2017-Sep-20 01:00N 47°31' W 122°30'1 2.7
2017-Sep-20 00:30N 47°31' W 122°28'3 5.5
2017-Sep-20 00:00N 47°31' W 122°24'3 5.5
2017-Sep-19 23:30N 47°31' W 122°28'3 5.5
2017-Sep-19 23:00N 47°31' W 122°24'2 4.2
2017-Sep-19 22:30N 47°31' W 122°27'1 1.4
2017-Sep-19 22:01N 47°31' W 122°26'1 1.6
2017-Sep-19 21:30N 47°31' W 122°25'2 4.3
2017-Sep-19 21:00N 47°31' W 122°28'0 0.0
2017-Sep-19 20:30N 47°31' W 122°28'2 3.5
2017-Sep-19 20:00N 47°31' W 122°25'1 1.6
2017-Sep-19 19:31N 47°31' W 122°26'1 2.3
2017-Sep-19 19:00N 47°31' W 122°25'2 4.3
2017-Sep-19 18:30N 47°31' W 122°28'1 2.5
2017-Sep-19 18:01N 47°31' W 122°30'2 4.3
2017-Sep-19 17:30N 47°31' W 122°27'2 3.8
2017-Sep-19 17:01N 47°31' W 122°24'3 5.4
2017-Sep-19 16:31N 47°31' W 122°28'0 0.8
2017-Sep-19 16:00N 47°31' W 122°28'3 5.3
2017-Sep-19 15:30N 47°31' W 122°24'4 7.5
2017-Sep-19 15:01N 47°31' W 122°30'1 2.5
2017-Sep-19 14:31N 47°31' W 122°28'3 5.5
2017-Sep-19 14:00N 47°31' W 122°24'3 5.6
2017-Sep-19 13:30N 47°31' W 122°28'3 5.1
2017-Sep-19 13:01N 47°31' W 122°24'3 5.0
2017-Sep-19 12:30N 47°31' W 122°28'0 0.0
2017-Sep-19 12:00N 47°31' W 122°28'0 0.0
2017-Sep-19 11:30N 47°31' W 122°28'0 0.0
2017-Sep-19 11:01N 47°31' W 122°28'0 0.0
2017-Sep-19 10:31N 47°31' W 122°28'0 0.0
2017-Sep-19 10:00N 47°31' W 122°28'0 0.0
2017-Sep-19 09:30N 47°31' W 122°28'0 0.0
2017-Sep-19 09:01N 47°31' W 122°28'0 0.0
2017-Sep-19 08:31N 47°31' W 122°28'0 0.0
2017-Sep-19 08:00N 47°31' W 122°28'0 0.0
2017-Sep-19 07:31N 47°31' W 122°28'0 0.0
2017-Sep-19 07:01N 47°31' W 122°28'0 0.0
2017-Sep-19 06:31N 47°31' W 122°28'0 0.0
2017-Sep-19 06:01N 47°31' W 122°28'0 0.0
2017-Sep-19 05:30N 47°31' W 122°28'0 0.0
2017-Sep-19 05:01N 47°31' W 122°28'1 2.4
2017-Sep-19 04:30N 47°31' W 122°30'4 7.7
2017-Sep-19 04:00N 47°31' W 122°24'3 5.6
2017-Sep-19 03:31N 47°31' W 122°28'3 5.6
2017-Sep-19 03:00N 47°31' W 122°24'4 7.9
2017-Sep-19 02:30N 47°31' W 122°30'1 2.5
2017-Sep-19 02:00N 47°31' W 122°28'3 5.6
2017-Sep-19 01:31N 47°31' W 122°24'4 8.1
2017-Sep-19 01:00N 47°31' W 122°30'1 2.6
2017-Sep-19 00:30N 47°31' W 122°28'3 5.6
2017-Sep-19 00:01N 47°31' W 122°24'3 5.5
2017-Sep-18 23:30N 47°31' W 122°28'3 5.6
2017-Sep-18 23:01N 47°31' W 122°24'2 3.7
2017-Sep-18 22:30N 47°31' W 122°26'1 1.1
2017-Sep-18 22:01N 47°31' W 122°27'2 3.9
2017-Sep-18 21:30N 47°31' W 122°24'2 4.7
2017-Sep-18 21:00N 47°31' W 122°28'0 0.0
2017-Sep-18 20:30N 47°31' W 122°28'2 3.2
2017-Sep-18 20:01N 47°31' W 122°25'1 1.6
2017-Sep-18 19:30N 47°31' W 122°27'1 1.8
2017-Sep-18 19:00N 47°31' W 122°25'2 3.5
2017-Sep-18 18:30N 47°31' W 122°28'1 2.7
2017-Sep-18 18:00N 47°31' W 122°30'2 3.8
2017-Sep-18 17:30N 47°31' W 122°27'2 4.3
2017-Sep-18 17:00N 47°31' W 122°24'3 5.4
2017-Sep-18 16:30N 47°31' W 122°28'1 1.1
2017-Sep-18 16:00N 47°31' W 122°28'3 6.0
2017-Sep-18 15:30N 47°31' W 122°24'4 7.5
2017-Sep-18 15:00N 47°31' W 122°29'1 2.1
2017-Sep-18 14:30N 47°31' W 122°28'3 5.5
2017-Sep-18 14:00N 47°31' W 122°24'3 5.6
2017-Sep-18 13:31N 47°31' W 122°28'3 5.5
2017-Sep-18 13:01N 47°31' W 122°24'3 5.5
2017-Sep-18 12:30N 47°31' W 122°28'0 0.0
2017-Sep-18 12:00N 47°31' W 122°28'0 0.0
2017-Sep-18 11:30N 47°31' W 122°28'0 0.0
2017-Sep-18 11:00N 47°31' W 122°28'0 0.0
2017-Sep-18 10:30N 47°31' W 122°28'0 0.0
2017-Sep-18 10:00N 47°31' W 122°28'0 0.0
2017-Sep-18 09:30N 47°31' W 122°28'0 0.0
2017-Sep-18 09:00N 47°31' W 122°28'0 0.0
2017-Sep-18 08:30N 47°31' W 122°28'0 0.0
2017-Sep-18 08:00N 47°31' W 122°28'0 0.0
2017-Sep-18 07:30N 47°31' W 122°28'0 0.0
2017-Sep-18 07:00N 47°31' W 122°28'0 0.0
2017-Sep-18 06:30N 47°31' W 122°28'2 3.5
2017-Sep-18 06:01N 47°31' W 122°25'1 2.1
2017-Sep-18 05:31N 47°31' W 122°24'3 5.7
2017-Sep-18 05:01N 47°31' W 122°28'0 0.1
2017-Sep-18 04:30N 47°31' W 122°28'2 4.0
2017-Sep-18 04:00N 47°31' W 122°25'2 3.3
2017-Sep-18 03:30N 47°31' W 122°28'1 1.1
2017-Sep-18 03:00N 47°31' W 122°28'3 5.6
2017-Sep-18 02:30N 47°31' W 122°24'3 5.6
2017-Sep-18 02:01N 47°31' W 122°28'3 5.6
2017-Sep-18 01:30N 47°31' W 122°24'2 4.8
2017-Sep-18 01:00N 47°31' W 122°27'2 4.8
2017-Sep-18 00:30N 47°31' W 122°24'3 5.6
2017-Sep-18 00:01N 47°31' W 122°28'3 5.5
2017-Sep-17 23:30N 47°31' W 122°24'3 5.5
2017-Sep-17 23:00N 47°31' W 122°28'3 5.5
2017-Sep-17 22:30N 47°31' W 122°24'3 5.5
2017-Sep-17 22:01N 47°31' W 122°28'1 2.7
2017-Sep-17 21:30N 47°31' W 122°30'1 2.7
2017-Sep-17 21:00N 47°31' W 122°28'3 5.6
2017-Sep-17 20:31N 47°31' W 122°24'3 5.5
2017-Sep-17 20:00N 47°31' W 122°28'3 5.5
2017-Sep-17 19:30N 47°31' W 122°24'3 6.0
2017-Sep-17 19:00N 47°31' W 122°28'0 0.4
2017-Sep-17 18:30N 47°31' W 122°28'2 3.7
2017-Sep-17 18:00N 47°31' W 122°25'0 0.7
2017-Sep-17 17:30N 47°31' W 122°25'2 3.2
2017-Sep-17 17:00N 47°31' W 122°27'2 3.3
2017-Sep-17 16:31N 47°31' W 122°25'1 2.6
2017-Sep-17 16:00N 47°31' W 122°27'1 2.7
2017-Sep-17 15:31N 47°31' W 122°25'2 4.4
2017-Sep-17 15:00N 47°31' W 122°28'0 0.0
2017-Sep-17 14:30N 47°31' W 122°28'0 0.0
2017-Sep-17 14:00N 47°31' W 122°28'0 0.0
2017-Sep-17 13:30N 47°31' W 122°28'0 0.0
2017-Sep-17 13:00N 47°31' W 122°28'0 0.0
2017-Sep-17 12:30N 47°31' W 122°28'0 0.0
2017-Sep-17 12:00N 47°31' W 122°28'0 0.0
2017-Sep-17 11:30N 47°31' W 122°28'0 0.0
2017-Sep-17 11:00N 47°31' W 122°28'0 0.0
2017-Sep-17 10:30N 47°31' W 122°28'0 0.0
2017-Sep-17 10:00N 47°31' W 122°28'0 0.0
2017-Sep-17 09:30N 47°31' W 122°28'0 0.0
2017-Sep-17 09:00N 47°31' W 122°28'0 0.0
2017-Sep-17 08:30N 47°31' W 122°28'0 0.0
2017-Sep-17 08:00N 47°31' W 122°28'0 0.0
2017-Sep-17 07:31N 47°31' W 122°28'0 0.0
2017-Sep-17 07:00N 47°31' W 122°28'0 0.0
2017-Sep-17 06:30N 47°31' W 122°28'2 4.4
2017-Sep-17 06:01N 47°31' W 122°25'0 1.0
2017-Sep-17 05:31N 47°31' W 122°24'3 5.4
2017-Sep-17 05:00N 47°31' W 122°28'1 1.2
2017-Sep-17 04:31N 47°31' W 122°29'3 5.0
2017-Sep-17 04:00N 47°31' W 122°25'1 2.9
2017-Sep-17 03:30N 47°31' W 122°27'1 1.8
2017-Sep-17 03:01N 47°31' W 122°28'3 5.5
2017-Sep-17 02:30N 47°31' W 122°24'3 5.6
2017-Sep-17 02:00N 47°31' W 122°28'3 5.6
2017-Sep-17 01:31N 47°31' W 122°24'2 3.6
2017-Sep-17 01:00N 47°31' W 122°26'1 1.5
2017-Sep-17 00:30N 47°31' W 122°25'1 1.6
2017-Sep-17 00:01N 47°31' W 122°26'2 3.7
2017-Sep-16 23:30N 47°31' W 122°24'3 5.6
2017-Sep-16 23:01N 47°31' W 122°28'3 5.5
2017-Sep-16 22:30N 47°31' W 122°24'3 5.5
2017-Sep-16 22:00N 47°31' W 122°28'1 2.7
2017-Sep-16 21:30N 47°31' W 122°30'1 2.7
2017-Sep-16 21:00N 47°31' W 122°28'3 5.5
2017-Sep-16 20:30N 47°31' W 122°24'2 4.5
2017-Sep-16 20:00N 47°31' W 122°27'2 4.3
2017-Sep-16 19:31N 47°31' W 122°24'3 6.7
2017-Sep-16 19:01N 47°31' W 122°29'1 1.2
2017-Sep-16 18:30N 47°31' W 122°28'2 4.6
2017-Sep-16 18:00N 47°31' W 122°25'0 0.7
2017-Sep-16 17:30N 47°31' W 122°25'1 1.8
2017-Sep-16 17:00N 47°31' W 122°26'1 2.0
2017-Sep-16 16:31N 47°31' W 122°25'1 2.8
2017-Sep-16 16:01N 47°31' W 122°27'2 3.4
2017-Sep-16 15:31N 47°31' W 122°24'2 4.6
2017-Sep-16 15:00N 47°31' W 122°28'0 0.0
2017-Sep-16 14:30N 47°31' W 122°28'0 0.0
2017-Sep-16 14:00N 47°31' W 122°28'0 0.0
2017-Sep-16 13:31N 47°31' W 122°28'0 0.0
2017-Sep-16 13:00N 47°31' W 122°28'0 0.0
2017-Sep-16 12:30N 47°31' W 122°28'0 0.0
2017-Sep-16 12:00N 47°31' W 122°28'0 0.0
2017-Sep-16 11:30N 47°31' W 122°28'0 0.0
2017-Sep-16 11:00N 47°31' W 122°28'0 0.0
2017-Sep-16 10:30N 47°31' W 122°28'0 0.0
2017-Sep-16 10:00N 47°31' W 122°28'0 0.0
2017-Sep-16 09:30N 47°31' W 122°28'0 0.0
2017-Sep-16 09:01N 47°31' W 122°28'0 0.0
2017-Sep-16 08:30N 47°31' W 122°28'0 0.0
2017-Sep-16 08:01N 47°31' W 122°28'0 0.0
2017-Sep-16 07:30N 47°31' W 122°28'0 0.0
2017-Sep-16 07:00N 47°31' W 122°28'0 0.0
2017-Sep-16 06:30N 47°31' W 122°28'0 0.0
2017-Sep-16 06:00N 47°31' W 122°28'0 0.0
2017-Sep-16 05:30N 47°31' W 122°28'0 0.1
2017-Sep-16 05:01N 47°31' W 122°28'3 5.4
2017-Sep-16 04:30N 47°31' W 122°24'1 2.8
2017-Sep-16 04:00N 47°31' W 122°26'3 5.3
2017-Sep-16 03:30N 47°31' W 122°30'1 2.5
2017-Sep-16 03:00N 47°31' W 122°28'3 5.6
2017-Sep-16 02:30N 47°31' W 122°24'3 5.6
2017-Sep-16 02:01N 47°31' W 122°28'1 2.5
2017-Sep-16 01:30N 47°31' W 122°30'3 5.6
2017-Sep-16 01:01N 47°31' W 122°25'0 0.7
2017-Sep-16 00:30N 47°31' W 122°25'2 3.0
2017-Sep-16 00:00N 47°31' W 122°27'2 4.1
2017-Sep-15 23:30N 47°31' W 122°24'4 7.6
2017-Sep-15 23:00N 47°31' W 122°30'4 8.0
2017-Sep-15 22:30N 47°31' W 122°24'2 4.2
2017-Sep-15 22:00N 47°31' W 122°27'0 0.2
2017-Sep-15 21:31N 47°31' W 122°27'1 1.0
2017-Sep-15 21:00N 47°31' W 122°27'1 2.6
2017-Sep-15 20:31N 47°31' W 122°25'1 1.5
2017-Sep-15 20:01N 47°31' W 122°24'4 7.5
2017-Sep-15 19:31N 47°31' W 122°29'1 2.0
2017-Sep-15 19:01N 47°31' W 122°28'3 5.4
2017-Sep-15 18:30N 47°31' W 122°24'3 5.6
2017-Sep-15 18:00N 47°31' W 122°28'3 5.1
2017-Sep-15 17:31N 47°31' W 122°24'3 7.0
2017-Sep-15 17:01N 47°31' W 122°29'1 1.9
2017-Sep-15 16:30N 47°31' W 122°28'3 5.6
2017-Sep-15 16:00N 47°31' W 122°24'3 5.6
2017-Sep-15 15:30N 47°31' W 122°28'1 1.9
2017-Sep-15 15:01N 47°31' W 122°27'1 2.4
2017-Sep-15 14:30N 47°31' W 122°25'1 2.8
2017-Sep-15 14:00N 47°31' W 122°27'1 2.6
2017-Sep-15 13:31N 47°31' W 122°25'3 6.2
2017-Sep-15 13:01N 47°31' W 122°30'1 2.6
2017-Sep-15 12:31N 47°31' W 122°28'3 5.6
2017-Sep-15 12:00N 47°31' W 122°24'3 5.4
2017-Sep-15 11:31N 47°31' W 122°28'1 2.7
2017-Sep-15 11:00N 47°31' W 122°30'0 0.0
2017-Sep-15 10:30N 47°31' W 122°30'0 0.0
2017-Sep-15 10:00N 47°31' W 122°30'1 2.6
2017-Sep-15 09:31N 47°31' W 122°28'3 5.6
2017-Sep-15 09:00N 47°31' W 122°24'4 8.0
2017-Sep-15 08:30N 47°31' W 122°30'3 6.1
2017-Sep-15 08:00N 47°31' W 122°25'2 4.4
2017-Sep-15 07:30N 47°31' W 122°28'1 1.2
2017-Sep-15 07:00N 47°31' W 122°28'3 5.4
2017-Sep-15 06:31N 47°31' W 122°24'4 7.8
2017-Sep-15 06:00N 47°31' W 122°30'3 5.2
2017-Sep-15 05:31N 47°31' W 122°26'1 1.3
2017-Sep-15 05:00N 47°31' W 122°27'0 0.7
2017-Sep-15 04:31N 47°31' W 122°27'2 3.8
2017-Sep-15 04:01N 47°31' W 122°24'3 5.8
2017-Sep-15 03:30N 47°31' W 122°29'0 0.2
2017-Sep-15 03:00N 47°31' W 122°29'3 6.6
2017-Sep-15 02:30N 47°31' W 122°24'3 5.5
2017-Sep-15 02:00N 47°31' W 122°28'1 2.7
2017-Sep-15 01:30N 47°31' W 122°30'1 2.6
2017-Sep-15 01:01N 47°31' W 122°28'3 5.6
2017-Sep-15 00:30N 47°31' W 122°24'3 5.6
2017-Sep-15 00:00N 47°31' W 122°28'3 5.6
2017-Sep-14 23:31N 47°31' W 122°24'4 8.1
2017-Sep-14 23:00N 47°31' W 122°30'4 8.1
2017-Sep-14 22:30N 47°31' W 122°24'2 3.5
2017-Sep-14 22:01N 47°31' W 122°26'0 0.8
2017-Sep-14 21:30N 47°31' W 122°27'1 1.2
2017-Sep-14 21:00N 47°31' W 122°26'1 1.5
2017-Sep-14 20:30N 47°31' W 122°25'1 1.9
2017-Sep-14 20:01N 47°31' W 122°24'3 6.8
2017-Sep-14 19:31N 47°31' W 122°29'1 1.5
2017-Sep-14 19:00N 47°31' W 122°28'3 5.6
2017-Sep-14 18:30N 47°31' W 122°24'3 5.4
2017-Sep-14 18:00N 47°31' W 122°28'2 4.1
2017-Sep-14 17:30N 47°31' W 122°25'3 6.5
2017-Sep-14 17:01N 47°31' W 122°30'1 2.4
2017-Sep-14 16:31N 47°31' W 122°28'3 5.6
2017-Sep-14 16:00N 47°31' W 122°24'3 5.6
2017-Sep-14 15:31N 47°31' W 122°28'1 1.9
2017-Sep-14 15:01N 47°31' W 122°27'1 2.3
2017-Sep-14 14:30N 47°31' W 122°25'1 1.5
2017-Sep-14 14:00N 47°31' W 122°26'1 1.7
2017-Sep-14 13:30N 47°31' W 122°25'3 6.5
2017-Sep-14 13:00N 47°31' W 122°30'1 2.6
2017-Sep-14 12:30N 47°31' W 122°28'3 5.6
2017-Sep-14 12:01N 47°31' W 122°24'3 5.6
2017-Sep-14 11:31N 47°31' W 122°28'1 2.5
2017-Sep-14 11:00N 47°31' W 122°30'0 0.4
2017-Sep-14 10:31N 47°31' W 122°30'0 0.4
2017-Sep-14 10:01N 47°31' W 122°30'1 2.6
2017-Sep-14 09:30N 47°31' W 122°28'3 5.6
2017-Sep-14 09:00N 47°31' W 122°24'4 7.7
2017-Sep-14 08:31N 47°31' W 122°29'3 5.8
2017-Sep-14 08:00N 47°32' W 122°25'2 4.2
2017-Sep-14 07:30N 47°31' W 122°28'1 1.1
2017-Sep-14 07:00N 47°31' W 122°28'3 5.6
2017-Sep-14 06:30N 47°31' W 122°24'4 8.1
2017-Sep-14 06:00N 47°31' W 122°30'3 5.2
2017-Sep-14 05:30N 47°31' W 122°26'1 1.2
2017-Sep-14 05:00N 47°31' W 122°27'0 0.9
2017-Sep-14 04:30N 47°31' W 122°26'2 3.0
2017-Sep-14 04:01N 47°31' W 122°24'4 7.3
2017-Sep-14 03:30N 47°31' W 122°29'1 1.2
2017-Sep-14 03:01N 47°31' W 122°28'3 6.3
2017-Sep-14 02:30N 47°31' W 122°24'3 5.5
2017-Sep-14 02:00N 47°31' W 122°28'1 2.7
2017-Sep-14 01:31N 47°31' W 122°30'1 2.6
2017-Sep-14 01:00N 47°31' W 122°28'3 5.6
2017-Sep-14 00:31N 47°31' W 122°24'3 5.5
2017-Sep-14 00:00N 47°31' W 122°28'3 5.5
2017-Sep-13 23:30N 47°31' W 122°24'4 8.2
2017-Sep-13 23:01N 47°31' W 122°30'4 8.1
2017-Sep-13 22:30N 47°31' W 122°24'2 4.3
2017-Sep-13 22:01N 47°31' W 122°27'1 2.4
2017-Sep-13 21:30N 47°31' W 122°25'1 3.0
2017-Sep-13 21:00N 47°31' W 122°27'2 3.1
2017-Sep-13 20:30N 47°31' W 122°25'1 1.6
2017-Sep-13 20:00N 47°31' W 122°24'3 6.8
2017-Sep-13 19:30N 47°31' W 122°29'1 1.4
2017-Sep-13 19:00N 47°31' W 122°28'3 5.5
2017-Sep-13 18:30N 47°31' W 122°24'3 5.6
2017-Sep-13 18:01N 47°31' W 122°28'2 4.9
2017-Sep-13 17:31N 47°31' W 122°24'3 6.3
2017-Sep-13 17:00N 47°31' W 122°29'1 1.4
2017-Sep-13 16:31N 47°31' W 122°28'3 5.6
2017-Sep-13 16:00N 47°31' W 122°24'3 5.6
2017-Sep-13 15:30N 47°31' W 122°28'1 1.7
2017-Sep-13 15:01N 47°31' W 122°27'1 2.7
2017-Sep-13 14:30N 47°31' W 122°25'1 2.6
2017-Sep-13 14:01N 47°31' W 122°27'1 2.6
2017-Sep-13 13:30N 47°31' W 122°25'3 6.5
2017-Sep-13 13:00N 47°31' W 122°30'1 2.6
2017-Sep-13 12:30N 47°31' W 122°28'3 5.6
2017-Sep-13 12:00N 47°31' W 122°24'4 7.9
2017-Sep-13 11:31N 47°31' W 122°30'0 0.3
2017-Sep-13 11:00N 47°31' W 122°29'0 0.5
2017-Sep-13 10:31N 47°31' W 122°30'0 0.0
2017-Sep-13 10:01N 47°31' W 122°30'1 2.6
2017-Sep-13 09:30N 47°31' W 122°28'3 5.3
2017-Sep-13 09:00N 47°31' W 122°24'4 7.5
2017-Sep-13 08:31N 47°31' W 122°30'3 5.9
2017-Sep-13 08:00N 47°31' W 122°25'2 4.1
2017-Sep-13 07:30N 47°31' W 122°28'0 0.9
2017-Sep-13 07:00N 47°31' W 122°28'3 5.6
2017-Sep-13 06:31N 47°31' W 122°24'4 7.7
2017-Sep-13 06:01N 47°31' W 122°30'3 5.0
2017-Sep-13 05:30N 47°31' W 122°26'1 1.0
2017-Sep-13 05:00N 47°31' W 122°27'0 0.7
2017-Sep-13 04:30N 47°31' W 122°27'2 3.8
2017-Sep-13 04:01N 47°31' W 122°24'4 7.0
2017-Sep-13 03:30N 47°31' W 122°29'1 1.8
2017-Sep-13 03:01N 47°31' W 122°28'3 5.7
2017-Sep-13 02:30N 47°31' W 122°24'3 5.5
2017-Sep-13 02:00N 47°31' W 122°28'1 2.6
2017-Sep-13 01:31N 47°31' W 122°30'3 5.3
2017-Sep-13 01:01N 47°31' W 122°26'1 2.7
2017-Sep-13 00:30N 47°31' W 122°24'3 5.6
2017-Sep-13 00:00N 47°31' W 122°28'2 4.4
2017-Sep-12 23:31N 47°31' W 122°25'3 7.0
2017-Sep-12 23:00N 47°31' W 122°30'4 8.1
2017-Sep-12 22:30N 47°31' W 122°24'2 4.0
2017-Sep-12 22:01N 47°31' W 122°27'0 0.3
2017-Sep-12 21:31N 47°31' W 122°27'0 0.5
2017-Sep-12 21:01N 47°31' W 122°27'1 2.3
2017-Sep-12 20:31N 47°31' W 122°25'1 1.5
2017-Sep-12 20:00N 47°31' W 122°24'3 6.8
2017-Sep-12 19:30N 47°31' W 122°29'1 1.5
2017-Sep-12 19:01N 47°31' W 122°28'3 5.5
2017-Sep-12 18:30N 47°31' W 122°24'3 5.5
2017-Sep-12 18:01N 47°31' W 122°28'2 3.9
2017-Sep-12 17:31N 47°31' W 122°25'3 5.8
2017-Sep-12 17:00N 47°31' W 122°29'1 1.8
2017-Sep-12 16:30N 47°31' W 122°28'3 5.6
2017-Sep-12 16:00N 47°31' W 122°24'3 5.6
2017-Sep-12 15:30N 47°31' W 122°28'1 1.9
2017-Sep-12 15:00N 47°31' W 122°27'1 3.0
2017-Sep-12 14:31N 47°31' W 122°25'1 2.2
2017-Sep-12 14:00N 47°31' W 122°26'1 1.4
2017-Sep-12 13:30N 47°31' W 122°25'3 5.8
2017-Sep-12 13:00N 47°31' W 122°30'1 2.6
2017-Sep-12 12:31N 47°31' W 122°28'3 5.6
2017-Sep-12 12:00N 47°31' W 122°24'3 5.6
2017-Sep-12 11:30N 47°31' W 122°28'1 2.5
2017-Sep-12 11:00N 47°31' W 122°30'0 0.1
2017-Sep-12 10:30N 47°31' W 122°30'0 0.1
2017-Sep-12 10:00N 47°31' W 122°30'1 2.6
2017-Sep-12 09:30N 47°31' W 122°28'3 5.6
2017-Sep-12 09:01N 47°31' W 122°24'4 7.5
2017-Sep-12 08:30N 47°31' W 122°29'3 5.7
2017-Sep-12 08:01N 47°31' W 122°25'2 3.8
2017-Sep-12 07:31N 47°31' W 122°28'1 1.0
2017-Sep-12 07:00N 47°31' W 122°28'3 5.6
2017-Sep-12 06:30N 47°31' W 122°24'4 8.1
2017-Sep-12 06:00N 47°31' W 122°30'2 4.8
2017-Sep-12 05:31N 47°31' W 122°26'1 1.0
2017-Sep-12 05:01N 47°31' W 122°27'0 0.2
2017-Sep-12 04:31N 47°31' W 122°27'1 2.9
2017-Sep-12 04:01N 47°31' W 122°25'3 6.0
2017-Sep-12 03:30N 47°31' W 122°29'1 1.6
2017-Sep-12 03:01N 47°31' W 122°28'3 6.0
2017-Sep-12 02:31N 47°31' W 122°24'  
Track history (hours):
 
Tides and Currents Weather Stations Pressure Air Temp Water Temp Dewpoint Dewpoint Depression Visibility Wind Speed Wind Dir Waves Ship Positions

Cathlamet

Owner: WASHINGTON, STATE OF; Dept. of Transportation, OLYMPIA, WA. More information available from US FCC via Universal Licensing System and Coast Guard Vessel Documentation Center.

Last reported at 2017-Sep-22 02:00 UTC. Time now 2017-Sep-23 18:34 UTC.
Position N 47°31' W 122°28'.

Length 100 m; draft 4.7 m.

Type: Passenger vessel. MMSI: 366773070.

Date/timePositionNaut miles runAvg speedWind from/ knotsBaromVisibWave heightAir tempDewpointWater temp
2017-Sep-22 02:00N 47°31' W 122°28'3 5.6
2017-Sep-22 01:30N 47°31' W 122°24'4 8.2
2017-Sep-22 01:01N 47°31' W 122°30'1 2.7
2017-Sep-22 00:31N 47°31' W 122°28'3 5.4
2017-Sep-22 00:01N 47°31' W 122°24'3 5.5
2017-Sep-21 23:30N 47°31' W 122°28'3 5.6
2017-Sep-21 23:01N 47°31' W 122°24'2 4.4
2017-Sep-21 22:30N 47°31' W 122°27'1 1.0
2017-Sep-21 22:01N 47°31' W 122°26'1 1.4
2017-Sep-21 21:31N 47°31' W 122°25'2 3.4
2017-Sep-21 21:00N 47°31' W 122°28'0 0.0
2017-Sep-21 20:30N 47°31' W 122°28'2 3.5
2017-Sep-21 20:01N 47°31' W 122°25'1 2.0
2017-Sep-21 19:30N 47°31' W 122°27'2 4.0
2017-Sep-21 19:00N 47°31' W 122°24'3 5.5
2017-Sep-21 18:30N 47°31' W 122°28'1 2.7
2017-Sep-21 18:00N 47°31' W 122°30'2 3.4
2017-Sep-21 17:30N 47°31' W 122°27'2 4.7
2017-Sep-21 17:00N 47°31' W 122°24'3 5.8
2017-Sep-21 16:30N 47°31' W 122°28'0 0.6
2017-Sep-21 16:01N 47°31' W 122°28'3 5.7
2017-Sep-21 15:30N 47°31' W 122°24'4 7.5
2017-Sep-21 15:01N 47°31' W 122°30'1 2.5
2017-Sep-21 14:30N 47°31' W 122°28'3 5.6
2017-Sep-21 14:00N 47°31' W 122°24'3 5.6
2017-Sep-21 13:31N 47°31' W 122°28'3 5.5
2017-Sep-21 13:01N 47°31' W 122°24'3 5.5
2017-Sep-21 12:31N 47°31' W 122°28'0 0.0
2017-Sep-21 12:01N 47°31' W 122°28'0 0.0
2017-Sep-21 11:31N 47°31' W 122°28'0 0.0
2017-Sep-21 11:01N 47°31' W 122°28'0 0.0
2017-Sep-21 10:31N 47°31' W 122°28'0 0.0
2017-Sep-21 10:01N 47°31' W 122°28'0 0.0
2017-Sep-21 09:31N 47°31' W 122°28'0 0.0
2017-Sep-21 09:01N 47°31' W 122°28'0 0.0
2017-Sep-21 08:31N 47°31' W 122°28'0 0.0
2017-Sep-21 08:00N 47°31' W 122°28'0 0.0
2017-Sep-21 07:31N 47°31' W 122°28'0 0.0
2017-Sep-21 07:00N 47°31' W 122°28'0 0.0
2017-Sep-21 06:31N 47°31' W 122°28'0 0.0
2017-Sep-21 06:01N 47°31' W 122°28'0 0.0
2017-Sep-21 05:30N 47°31' W 122°28'0 0.0
2017-Sep-21 05:01N 47°31' W 122°28'1 2.5
2017-Sep-21 04:30N 47°31' W 122°30'3 6.7
2017-Sep-21 04:01N 47°31' W 122°25'2 4.3
2017-Sep-21 03:31N 47°31' W 122°28'3 5.5
2017-Sep-21 03:00N 47°31' W 122°24'3 5.6
2017-Sep-21 02:31N 47°31' W 122°28'0 0.3
2017-Sep-21 02:01N 47°31' W 122°28'3 5.6
2017-Sep-21 01:30N 47°31' W 122°24'4 8.0
2017-Sep-21 01:00N 47°31' W 122°30'1 2.5
2017-Sep-21 00:30N 47°31' W 122°28'3 5.6
2017-Sep-21 00:00N 47°31' W 122°24'3 5.6
2017-Sep-20 23:30N 47°31' W 122°28'3 5.5
2017-Sep-20 23:00N 47°31' W 122°24'2 4.1
2017-Sep-20 22:30N 47°31' W 122°27'1 1.1
2017-Sep-20 22:00N 47°31' W 122°28'2 4.0
2017-Sep-20 21:30N 47°31' W 122°25'2 4.3
2017-Sep-20 21:00N 47°31' W 122°28'0 0.0
2017-Sep-20 20:30N 47°31' W 122°28'2 3.6
2017-Sep-20 20:00N 47°31' W 122°25'1 1.5
2017-Sep-20 19:30N 47°31' W 122°26'1 2.4
2017-Sep-20 19:00N 47°31' W 122°25'2 4.5
2017-Sep-20 18:30N 47°31' W 122°28'1 2.7
2017-Sep-20 18:01N 47°31' W 122°30'2 3.4
2017-Sep-20 17:30N 47°31' W 122°27'2 4.7
2017-Sep-20 17:00N 47°31' W 122°24'3 5.6
2017-Sep-20 16:31N 47°31' W 122°28'0 0.6
2017-Sep-20 16:00N 47°31' W 122°28'3 5.3
2017-Sep-20 15:31N 47°31' W 122°24'4 7.1
2017-Sep-20 15:01N 47°31' W 122°29'4 3.5
2017-Sep-20 14:00N 47°31' W 122°24'3 5.5
2017-Sep-20 13:30N 47°31' W 122°28'3 5.6
2017-Sep-20 13:00N 47°31' W 122°24'3 5.6
2017-Sep-20 12:31N 47°31' W 122°28'0 0.0
2017-Sep-20 12:01N 47°31' W 122°28'0 0.0
2017-Sep-20 11:31N 47°31' W 122°28'0 0.0
2017-Sep-20 11:01N 47°31' W 122°28'0 0.0
2017-Sep-20 10:31N 47°31' W 122°28'0 0.0
2017-Sep-20 10:01N 47°31' W 122°28'0 0.0
2017-Sep-20 09:30N 47°31' W 122°28'0 0.0
2017-Sep-20 09:01N 47°31' W 122°28'0 0.0
2017-Sep-20 08:31N 47°31' W 122°28'0 0.0
2017-Sep-20 08:01N 47°31' W 122°28'0 0.0
2017-Sep-20 07:31N 47°31' W 122°28'0 0.0
2017-Sep-20 07:01N 47°31' W 122°28'0 0.0
2017-Sep-20 06:31N 47°31' W 122°28'0 0.0
2017-Sep-20 06:00N 47°31' W 122°28'0 0.0
2017-Sep-20 05:31N 47°31' W 122°28'0 0.0
2017-Sep-20 05:01N 47°31' W 122°28'1 2.3
2017-Sep-20 04:31N 47°31' W 122°29'4 7.6
2017-Sep-20 04:00N 47°31' W 122°24'3 5.6
2017-Sep-20 03:30N 47°31' W 122°28'3 5.5
2017-Sep-20 03:00N 47°31' W 122°24'3 5.7
2017-Sep-20 02:31N 47°31' W 122°28'0 0.7
2017-Sep-20 02:01N 47°31' W 122°28'3 5.6
2017-Sep-20 01:30N 47°31' W 122°24'4 8.2
2017-Sep-20 01:00N 47°31' W 122°30'1 2.7
2017-Sep-20 00:30N 47°31' W 122°28'3 5.5
2017-Sep-20 00:00N 47°31' W 122°24'3 5.5
2017-Sep-19 23:30N 47°31' W 122°28'3 5.5
2017-Sep-19 23:00N 47°31' W 122°24'2 4.2
2017-Sep-19 22:30N 47°31' W 122°27'1 1.4
2017-Sep-19 22:01N 47°31' W 122°26'1 1.6
2017-Sep-19 21:30N 47°31' W 122°25'2 4.3
2017-Sep-19 21:00N 47°31' W 122°28'0 0.0
2017-Sep-19 20:30N 47°31' W 122°28'2 3.5
2017-Sep-19 20:00N 47°31' W 122°25'1 1.6
2017-Sep-19 19:31N 47°31' W 122°26'1 2.3
2017-Sep-19 19:00N 47°31' W 122°25'2 4.3
2017-Sep-19 18:30N 47°31' W 122°28'1 2.5
2017-Sep-19 18:01N 47°31' W 122°30'2 4.3
2017-Sep-19 17:30N 47°31' W 122°27'2 3.8
2017-Sep-19 17:01N 47°31' W 122°24'3 5.4
2017-Sep-19 16:31N 47°31' W 122°28'0 0.8
2017-Sep-19 16:00N 47°31' W 122°28'3 5.3
2017-Sep-19 15:30N 47°31' W 122°24'4 7.5
2017-Sep-19 15:01N 47°31' W 122°30'1 2.5
2017-Sep-19 14:31N 47°31' W 122°28'3 5.5
2017-Sep-19 14:00N 47°31' W 122°24'3 5.6
2017-Sep-19 13:30N 47°31' W 122°28'3 5.1
2017-Sep-19 13:01N 47°31' W 122°24'3 5.0
2017-Sep-19 12:30N 47°31' W 122°28'0 0.0
2017-Sep-19 12:00N 47°31' W 122°28'0 0.0
2017-Sep-19 11:30N 47°31' W 122°28'0 0.0
2017-Sep-19 11:01N 47°31' W 122°28'0 0.0
2017-Sep-19 10:31N 47°31' W 122°28'0 0.0
2017-Sep-19 10:00N 47°31' W 122°28'0 0.0
2017-Sep-19 09:30N 47°31' W 122°28'0 0.0
2017-Sep-19 09:01N 47°31' W 122°28'0 0.0
2017-Sep-19 08:31N 47°31' W 122°28'0 0.0
2017-Sep-19 08:00N 47°31' W 122°28'0 0.0
2017-Sep-19 07:31N 47°31' W 122°28'0 0.0
2017-Sep-19 07:01N 47°31' W 122°28'0 0.0
2017-Sep-19 06:31N 47°31' W 122°28'0 0.0
2017-Sep-19 06:01N 47°31' W 122°28'0 0.0
2017-Sep-19 05:30N 47°31' W 122°28'0 0.0
2017-Sep-19 05:01N 47°31' W 122°28'1 2.4
2017-Sep-19 04:30N 47°31' W 122°30'4 7.7
2017-Sep-19 04:00N 47°31' W 122°24'3 5.6
2017-Sep-19 03:31N 47°31' W 122°28'3 5.6
2017-Sep-19 03:00N 47°31' W 122°24'4 7.9
2017-Sep-19 02:30N 47°31' W 122°30'1 2.5
2017-Sep-19 02:00N 47°31' W 122°28'3 5.6
2017-Sep-19 01:31N 47°31' W 122°24'4 8.1
2017-Sep-19 01:00N 47°31' W 122°30'1 2.6
2017-Sep-19 00:30N 47°31' W 122°28'3 5.6
2017-Sep-19 00:01N 47°31' W 122°24'3 5.5
2017-Sep-18 23:30N 47°31' W 122°28'3 5.6
2017-Sep-18 23:01N 47°31' W 122°24'2 3.7
2017-Sep-18 22:30N 47°31' W 122°26'1 1.1
2017-Sep-18 22:01N 47°31' W 122°27'2 3.9
2017-Sep-18 21:30N 47°31' W 122°24'2 4.7
2017-Sep-18 21:00N 47°31' W 122°28'0 0.0
2017-Sep-18 20:30N 47°31' W 122°28'2 3.2
2017-Sep-18 20:01N 47°31' W 122°25'1 1.6
2017-Sep-18 19:30N 47°31' W 122°27'1 1.8
2017-Sep-18 19:00N 47°31' W 122°25'2 3.5
2017-Sep-18 18:30N 47°31' W 122°28'1 2.7
2017-Sep-18 18:00N 47°31' W 122°30'2 3.8
2017-Sep-18 17:30N 47°31' W 122°27'2 4.3
2017-Sep-18 17:00N 47°31' W 122°24'3 5.4
2017-Sep-18 16:30N 47°31' W 122°28'1 1.1
2017-Sep-18 16:00N 47°31' W 122°28'3 6.0
2017-Sep-18 15:30N 47°31' W 122°24'4 7.5
2017-Sep-18 15:00N 47°31' W 122°29'1 2.1
2017-Sep-18 14:30N 47°31' W 122°28'3 5.5
2017-Sep-18 14:00N 47°31' W 122°24'3 5.6
2017-Sep-18 13:31N 47°31' W 122°28'3 5.5
2017-Sep-18 13:01N 47°31' W 122°24'3 5.5
2017-Sep-18 12:30N 47°31' W 122°28'0 0.0
2017-Sep-18 12:00N 47°31' W 122°28'0 0.0
2017-Sep-18 11:30N 47°31' W 122°28'0 0.0
2017-Sep-18 11:00N 47°31' W 122°28'0 0.0
2017-Sep-18 10:30N 47°31' W 122°28'0 0.0
2017-Sep-18 10:00N 47°31' W 122°28'0 0.0
2017-Sep-18 09:30N 47°31' W 122°28'0 0.0
2017-Sep-18 09:00N 47°31' W 122°28'0 0.0
2017-Sep-18 08:30N 47°31' W 122°28'0 0.0
2017-Sep-18 08:00N 47°31' W 122°28'0 0.0
2017-Sep-18 07:30N 47°31' W 122°28'0 0.0
2017-Sep-18 07:00N 47°31' W 122°28'0 0.0
2017-Sep-18 06:30N 47°31' W 122°28'2 3.5
2017-Sep-18 06:01N 47°31' W 122°25'1 2.1
2017-Sep-18 05:31N 47°31' W 122°24'3 5.7
2017-Sep-18 05:01N 47°31' W 122°28'0 0.1
2017-Sep-18 04:30N 47°31' W 122°28'2 4.0
2017-Sep-18 04:00N 47°31' W 122°25'2 3.3
2017-Sep-18 03:30N 47°31' W 122°28'1 1.1
2017-Sep-18 03:00N 47°31' W 122°28'3 5.6
2017-Sep-18 02:30N 47°31' W 122°24'3 5.6
2017-Sep-18 02:01N 47°31' W 122°28'3 5.6
2017-Sep-18 01:30N 47°31' W 122°24'2 4.8
2017-Sep-18 01:00N 47°31' W 122°27'2 4.8
2017-Sep-18 00:30N 47°31' W 122°24'3 5.6
2017-Sep-18 00:01N 47°31' W 122°28'3 5.5
2017-Sep-17 23:30N 47°31' W 122°24'3 5.5
2017-Sep-17 23:00N 47°31' W 122°28'3 5.5
2017-Sep-17 22:30N 47°31' W 122°24'3 5.5
2017-Sep-17 22:01N 47°31' W 122°28'1 2.7
2017-Sep-17 21:30N 47°31' W 122°30'1 2.7
2017-Sep-17 21:00N 47°31' W 122°28'3 5.6
2017-Sep-17 20:31N 47°31' W 122°24'3 5.5
2017-Sep-17 20:00N 47°31' W 122°28'3 5.5
2017-Sep-17 19:30N 47°31' W 122°24'3 6.0
2017-Sep-17 19:00N 47°31' W 122°28'0 0.4
2017-Sep-17 18:30N 47°31' W 122°28'2 3.7
2017-Sep-17 18:00N 47°31' W 122°25'0 0.7
2017-Sep-17 17:30N 47°31' W 122°25'2 3.2
2017-Sep-17 17:00N 47°31' W 122°27'2 3.3
2017-Sep-17 16:31N 47°31' W 122°25'1 2.6
2017-Sep-17 16:00N 47°31' W 122°27'1 2.7
2017-Sep-17 15:31N 47°31' W 122°25'2 4.4
2017-Sep-17 15:00N 47°31' W 122°28'0 0.0
2017-Sep-17 14:30N 47°31' W 122°28'0 0.0
2017-Sep-17 14:00N 47°31' W 122°28'0 0.0
2017-Sep-17 13:30N 47°31' W 122°28'0 0.0
2017-Sep-17 13:00N 47°31' W 122°28'0 0.0
2017-Sep-17 12:30N 47°31' W 122°28'0 0.0
2017-Sep-17 12:00N 47°31' W 122°28'0 0.0
2017-Sep-17 11:30N 47°31' W 122°28'0 0.0
2017-Sep-17 11:00N 47°31' W 122°28'0 0.0
2017-Sep-17 10:30N 47°31' W 122°28'0 0.0
2017-Sep-17 10:00N 47°31' W 122°28'0 0.0
2017-Sep-17 09:30N 47°31' W 122°28'0 0.0
2017-Sep-17 09:00N 47°31' W 122°28'0 0.0
2017-Sep-17 08:30N 47°31' W 122°28'0 0.0
2017-Sep-17 08:00N 47°31' W 122°28'0 0.0
2017-Sep-17 07:31N 47°31' W 122°28'0 0.0
2017-Sep-17 07:00N 47°31' W 122°28'0 0.0
2017-Sep-17 06:30N 47°31' W 122°28'2 4.4
2017-Sep-17 06:01N 47°31' W 122°25'0 1.0
2017-Sep-17 05:31N 47°31' W 122°24'3 5.4
2017-Sep-17 05:00N 47°31' W 122°28'1 1.2
2017-Sep-17 04:31N 47°31' W 122°29'3 5.0
2017-Sep-17 04:00N 47°31' W 122°25'1 2.9
2017-Sep-17 03:30N 47°31' W 122°27'1 1.8
2017-Sep-17 03:01N 47°31' W 122°28'3 5.5
2017-Sep-17 02:30N 47°31' W 122°24'3 5.6
2017-Sep-17 02:00N 47°31' W 122°28'3 5.6
2017-Sep-17 01:31N 47°31' W 122°24'2 3.6
2017-Sep-17 01:00N 47°31' W 122°26'1 1.5
2017-Sep-17 00:30N 47°31' W 122°25'1 1.6
2017-Sep-17 00:01N 47°31' W 122°26'2 3.7
2017-Sep-16 23:30N 47°31' W 122°24'3 5.6
2017-Sep-16 23:01N 47°31' W 122°28'3 5.5
2017-Sep-16 22:30N 47°31' W 122°24'3 5.5
2017-Sep-16 22:00N 47°31' W 122°28'1 2.7
2017-Sep-16 21:30N 47°31' W 122°30'1 2.7
2017-Sep-16 21:00N 47°31' W 122°28'3 5.5
2017-Sep-16 20:30N 47°31' W 122°24'2 4.5
2017-Sep-16 20:00N 47°31' W 122°27'2 4.3
2017-Sep-16 19:31N 47°31' W 122°24'3 6.7
2017-Sep-16 19:01N 47°31' W 122°29'1 1.2
2017-Sep-16 18:30N 47°31' W 122°28'2 4.6
2017-Sep-16 18:00N 47°31' W 122°25'0 0.7
2017-Sep-16 17:30N 47°31' W 122°25'1 1.8
2017-Sep-16 17:00N 47°31' W 122°26'1 2.0
2017-Sep-16 16:31N 47°31' W 122°25'1 2.8
2017-Sep-16 16:01N 47°31' W 122°27'2 3.4
2017-Sep-16 15:31N 47°31' W 122°24'2 4.6
2017-Sep-16 15:00N 47°31' W 122°28'0 0.0
2017-Sep-16 14:30N 47°31' W 122°28'0 0.0
2017-Sep-16 14:00N 47°31' W 122°28'0 0.0
2017-Sep-16 13:31N 47°31' W 122°28'0 0.0
2017-Sep-16 13:00N 47°31' W 122°28'0 0.0
2017-Sep-16 12:30N 47°31' W 122°28'0 0.0
2017-Sep-16 12:00N 47°31' W 122°28'0 0.0
2017-Sep-16 11:30N 47°31' W 122°28'0 0.0
2017-Sep-16 11:00N 47°31' W 122°28'0 0.0
2017-Sep-16 10:30N 47°31' W 122°28'0 0.0
2017-Sep-16 10:00N 47°31' W 122°28'0 0.0
2017-Sep-16 09:30N 47°31' W 122°28'0 0.0
2017-Sep-16 09:01N 47°31' W 122°28'0 0.0
2017-Sep-16 08:30N 47°31' W 122°28'0 0.0
2017-Sep-16 08:01N 47°31' W 122°28'0 0.0
2017-Sep-16 07:30N 47°31' W 122°28'0 0.0
2017-Sep-16 07:00N 47°31' W 122°28'0 0.0
2017-Sep-16 06:30N 47°31' W 122°28'0 0.0
2017-Sep-16 06:00N 47°31' W 122°28'0 0.0
2017-Sep-16 05:30N 47°31' W 122°28'0 0.1
2017-Sep-16 05:01N 47°31' W 122°28'3 5.4
2017-Sep-16 04:30N 47°31' W 122°24'1 2.8
2017-Sep-16 04:00N 47°31' W 122°26'3 5.3
2017-Sep-16 03:30N 47°31' W 122°30'1 2.5
2017-Sep-16 03:00N 47°31' W 122°28'3 5.6
2017-Sep-16 02:30N 47°31' W 122°24'3 5.6
2017-Sep-16 02:01N 47°31' W 122°28'1 2.5
2017-Sep-16 01:30N 47°31' W 122°30'3 5.6
2017-Sep-16 01:01N 47°31' W 122°25'0 0.7
2017-Sep-16 00:30N 47°31' W 122°25'2 3.0
2017-Sep-16 00:00N 47°31' W 122°27'2 4.1
2017-Sep-15 23:30N 47°31' W 122°24'4 7.6
2017-Sep-15 23:00N 47°31' W 122°30'4 8.0
2017-Sep-15 22:30N 47°31' W 122°24'2 4.2
2017-Sep-15 22:00N 47°31' W 122°27'0 0.2
2017-Sep-15 21:31N 47°31' W 122°27'1 1.0
2017-Sep-15 21:00N 47°31' W 122°27'1 2.6
2017-Sep-15 20:31N 47°31' W 122°25'1 1.5
2017-Sep-15 20:01N 47°31' W 122°24'4 7.5
2017-Sep-15 19:31N 47°31' W 122°29'1 2.0
2017-Sep-15 19:01N 47°31' W 122°28'3 5.4
2017-Sep-15 18:30N 47°31' W 122°24'3 5.6
2017-Sep-15 18:00N 47°31' W 122°28'3 5.1
2017-Sep-15 17:31N 47°31' W 122°24'3 7.0
2017-Sep-15 17:01N 47°31' W 122°29'1 1.9
2017-Sep-15 16:30N 47°31' W 122°28'3 5.6
2017-Sep-15 16:00N 47°31' W 122°24'3 5.6
2017-Sep-15 15:30N 47°31' W 122°28'1 1.9
2017-Sep-15 15:01N 47°31' W 122°27'1 2.4
2017-Sep-15 14:30N 47°31' W 122°25'1 2.8
2017-Sep-15 14:00N 47°31' W 122°27'1 2.6
2017-Sep-15 13:31N 47°31' W 122°25'3 6.2
2017-Sep-15 13:01N 47°31' W 122°30'1 2.6
2017-Sep-15 12:31N 47°31' W 122°28'3 5.6
2017-Sep-15 12:00N 47°31' W 122°24'3 5.4
2017-Sep-15 11:31N 47°31' W 122°28'1 2.7
2017-Sep-15 11:00N 47°31' W 122°30'0 0.0
2017-Sep-15 10:30N 47°31' W 122°30'0 0.0
2017-Sep-15 10:00N 47°31' W 122°30'1 2.6
2017-Sep-15 09:31N 47°31' W 122°28'3 5.6
2017-Sep-15 09:00N 47°31' W 122°24'4 8.0
2017-Sep-15 08:30N 47°31' W 122°30'3 6.1
2017-Sep-15 08:00N 47°31' W 122°25'2 4.4
2017-Sep-15 07:30N 47°31' W 122°28'1 1.2
2017-Sep-15 07:00N 47°31' W 122°28'3 5.4
2017-Sep-15 06:31N 47°31' W 122°24'4 7.8
2017-Sep-15 06:00N 47°31' W 122°30'3 5.2
2017-Sep-15 05:31N 47°31' W 122°26'1 1.3
2017-Sep-15 05:00N 47°31' W 122°27'0 0.7
2017-Sep-15 04:31N 47°31' W 122°27'2 3.8
2017-Sep-15 04:01N 47°31' W 122°24'3 5.8
2017-Sep-15 03:30N 47°31' W 122°29'0 0.2
2017-Sep-15 03:00N 47°31' W 122°29'3 6.6
2017-Sep-15 02:30N 47°31' W 122°24'3 5.5
2017-Sep-15 02:00N 47°31' W 122°28'1 2.7
2017-Sep-15 01:30N 47°31' W 122°30'1 2.6
2017-Sep-15 01:01N 47°31' W 122°28'3 5.6
2017-Sep-15 00:30N 47°31' W 122°24'3 5.6
2017-Sep-15 00:00N 47°31' W 122°28'3 5.6
2017-Sep-14 23:31N 47°31' W 122°24'4 8.1
2017-Sep-14 23:00N 47°31' W 122°30'4 8.1
2017-Sep-14 22:30N 47°31' W 122°24'2 3.5
2017-Sep-14 22:01N 47°31' W 122°26'0 0.8
2017-Sep-14 21:30N 47°31' W 122°27'1 1.2
2017-Sep-14 21:00N 47°31' W 122°26'1 1.5
2017-Sep-14 20:30N 47°31' W 122°25'1 1.9
2017-Sep-14 20:01N 47°31' W 122°24'3 6.8
2017-Sep-14 19:31N 47°31' W 122°29'1 1.5
2017-Sep-14 19:00N 47°31' W 122°28'3 5.6
2017-Sep-14 18:30N 47°31' W 122°24'3 5.4
2017-Sep-14 18:00N 47°31' W 122°28'2 4.1
2017-Sep-14 17:30N 47°31' W 122°25'3 6.5
2017-Sep-14 17:01N 47°31' W 122°30'1 2.4
2017-Sep-14 16:31N 47°31' W 122°28'3 5.6
2017-Sep-14 16:00N 47°31' W 122°24'3 5.6
2017-Sep-14 15:31N 47°31' W 122°28'1 1.9
2017-Sep-14 15:01N 47°31' W 122°27'1 2.3
2017-Sep-14 14:30N 47°31' W 122°25'1 1.5
2017-Sep-14 14:00N 47°31' W 122°26'1 1.7
2017-Sep-14 13:30N 47°31' W 122°25'3 6.5
2017-Sep-14 13:00N 47°31' W 122°30'1 2.6
2017-Sep-14 12:30N 47°31' W 122°28'3 5.6
2017-Sep-14 12:01N 47°31' W 122°24'3 5.6
2017-Sep-14 11:31N 47°31' W 122°28'1 2.5
2017-Sep-14 11:00N 47°31' W 122°30'0 0.4
2017-Sep-14 10:31N 47°31' W 122°30'0 0.4
2017-Sep-14 10:01N 47°31' W 122°30'1 2.6
2017-Sep-14 09:30N 47°31' W 122°28'3 5.6
2017-Sep-14 09:00N 47°31' W 122°24'4 7.7
2017-Sep-14 08:31N 47°31' W 122°29'3 5.8
2017-Sep-14 08:00N 47°32' W 122°25'2 4.2
2017-Sep-14 07:30N 47°31' W 122°28'1 1.1
2017-Sep-14 07:00N 47°31' W 122°28'3 5.6
2017-Sep-14 06:30N 47°31' W 122°24'4 8.1
2017-Sep-14 06:00N 47°31' W 122°30'3 5.2
2017-Sep-14 05:30N 47°31' W 122°26'1 1.2
2017-Sep-14 05:00N 47°31' W 122°27'0 0.9
2017-Sep-14 04:30N 47°31' W 122°26'2 3.0
2017-Sep-14 04:01N 47°31' W 122°24'4 7.3
2017-Sep-14 03:30N 47°31' W 122°29'1 1.2
2017-Sep-14 03:01N 47°31' W 122°28'3 6.3
2017-Sep-14 02:30N 47°31' W 122°24'3 5.5
2017-Sep-14 02:00N 47°31' W 122°28'1 2.7
2017-Sep-14 01:31N 47°31' W 122°30'1 2.6
2017-Sep-14 01:00N 47°31' W 122°28'3 5.6
2017-Sep-14 00:31N 47°31' W 122°24'3 5.5
2017-Sep-14 00:00N 47°31' W 122°28'3 5.5
2017-Sep-13 23:30N 47°31' W 122°24'4 8.2
2017-Sep-13 23:01N 47°31' W 122°30'4 8.1
2017-Sep-13 22:30N 47°31' W 122°24'2 4.3
2017-Sep-13 22:01N 47°31' W 122°27'1 2.4
2017-Sep-13 21:30N 47°31' W 122°25'1 3.0
2017-Sep-13 21:00N 47°31' W 122°27'2 3.1
2017-Sep-13 20:30N 47°31' W 122°25'1 1.6
2017-Sep-13 20:00N 47°31' W 122°24'3 6.8
2017-Sep-13 19:30N 47°31' W 122°29'1 1.4
2017-Sep-13 19:00N 47°31' W 122°28'3 5.5
2017-Sep-13 18:30N 47°31' W 122°24'3 5.6
2017-Sep-13 18:01N 47°31' W 122°28'2 4.9
2017-Sep-13 17:31N 47°31' W 122°24'3 6.3
2017-Sep-13 17:00N 47°31' W 122°29'1 1.4
2017-Sep-13 16:31N 47°31' W 122°28'3 5.6
2017-Sep-13 16:00N 47°31' W 122°24'3 5.6
2017-Sep-13 15:30N 47°31' W 122°28'1 1.7
2017-Sep-13 15:01N 47°31' W 122°27'1 2.7
2017-Sep-13 14:30N 47°31' W 122°25'1 2.6
2017-Sep-13 14:01N 47°31' W 122°27'1 2.6
2017-Sep-13 13:30N 47°31' W 122°25'3 6.5
2017-Sep-13 13:00N 47°31' W 122°30'1 2.6
2017-Sep-13 12:30N 47°31' W 122°28'3 5.6
2017-Sep-13 12:00N 47°31' W 122°24'4 7.9
2017-Sep-13 11:31N 47°31' W 122°30'0 0.3
2017-Sep-13 11:00N 47°31' W 122°29'0 0.5
2017-Sep-13 10:31N 47°31' W 122°30'0 0.0
2017-Sep-13 10:01N 47°31' W 122°30'1 2.6
2017-Sep-13 09:30N 47°31' W 122°28'3 5.3
2017-Sep-13 09:00N 47°31' W 122°24'4 7.5
2017-Sep-13 08:31N 47°31' W 122°30'3 5.9
2017-Sep-13 08:00N 47°31' W 122°25'2 4.1
2017-Sep-13 07:30N 47°31' W 122°28'0 0.9
2017-Sep-13 07:00N 47°31' W 122°28'3 5.6
2017-Sep-13 06:31N 47°31' W 122°24'4 7.7
2017-Sep-13 06:01N 47°31' W 122°30'3 5.0
2017-Sep-13 05:30N 47°31' W 122°26'1 1.0
2017-Sep-13 05:00N 47°31' W 122°27'0 0.7
2017-Sep-13 04:30N 47°31' W 122°27'2 3.8
2017-Sep-13 04:01N 47°31' W 122°24'4 7.0
2017-Sep-13 03:30N 47°31' W 122°29'1 1.8
2017-Sep-13 03:01N 47°31' W 122°28'3 5.7
2017-Sep-13 02:30N 47°31' W 122°24'3 5.5
2017-Sep-13 02:00N 47°31' W 122°28'1 2.6
2017-Sep-13 01:31N 47°31' W 122°30'3 5.3
2017-Sep-13 01:01N 47°31' W 122°26'1 2.7
2017-Sep-13 00:30N 47°31' W 122°24'3 5.6
2017-Sep-13 00:00N 47°31' W 122°28'2 4.4
2017-Sep-12 23:31N 47°31' W 122°25'3 7.0
2017-Sep-12 23:00N 47°31' W 122°30'4 8.1
2017-Sep-12 22:30N 47°31' W 122°24'2 4.0
2017-Sep-12 22:01N 47°31' W 122°27'0 0.3
2017-Sep-12 21:31N 47°31' W 122°27'0 0.5
2017-Sep-12 21:01N 47°31' W 122°27'1 2.3
2017-Sep-12 20:31N 47°31' W 122°25'1 1.5
2017-Sep-12 20:00N 47°31' W 122°24'3 6.8
2017-Sep-12 19:30N 47°31' W 122°29'1 1.5
2017-Sep-12 19:01N 47°31' W 122°28'3 5.5
2017-Sep-12 18:30N 47°31' W 122°24'3 5.5
2017-Sep-12 18:01N 47°31' W 122°28'2 3.9
2017-Sep-12 17:31N 47°31' W 122°25'3 5.8
2017-Sep-12 17:00N 47°31' W 122°29'1 1.8
2017-Sep-12 16:30N 47°31' W 122°28'3 5.6
2017-Sep-12 16:00N 47°31' W 122°24'3 5.6
2017-Sep-12 15:30N 47°31' W 122°28'1 1.9
2017-Sep-12 15:00N 47°31' W 122°27'1 3.0
2017-Sep-12 14:31N 47°31' W 122°25'1 2.2
2017-Sep-12 14:00N 47°31' W 122°26'1 1.4
2017-Sep-12 13:30N 47°31' W 122°25'3 5.8
2017-Sep-12 13:00N 47°31' W 122°30'1 2.6
2017-Sep-12 12:31N 47°31' W 122°28'3 5.6
2017-Sep-12 12:00N 47°31' W 122°24'3 5.6
2017-Sep-12 11:30N 47°31' W 122°28'1 2.5
2017-Sep-12 11:00N 47°31' W 122°30'0 0.1
2017-Sep-12 10:30N 47°31' W 122°30'0 0.1
2017-Sep-12 10:00N 47°31' W 122°30'1 2.6
2017-Sep-12 09:30N 47°31' W 122°28'3 5.6
2017-Sep-12 09:01N 47°31' W 122°24'4 7.5
2017-Sep-12 08:30N 47°31' W 122°29'3 5.7
2017-Sep-12 08:01N 47°31' W 122°25'2 3.8
2017-Sep-12 07:31N 47°31' W 122°28'1 1.0
2017-Sep-12 07:00N 47°31' W 122°28'3 5.6
2017-Sep-12 06:30N 47°31' W 122°24'4 8.1
2017-Sep-12 06:00N 47°31' W 122°30'2 4.8
2017-Sep-12 05:31N 47°31' W 122°26'1 1.0
2017-Sep-12 05:01N 47°31' W 122°27'0 0.2
2017-Sep-12 04:31N 47°31' W 122°27'1 2.9
2017-Sep-12 04:01N 47°31' W 122°25'3 6.0
2017-Sep-12 03:30N 47°31' W 122°29'1 1.6
2017-Sep-12 03:01N 47°31' W 122°28'3 6.0
2017-Sep-12 02:31N 47°31' W 122°24'  

Dump ship's entire track history